createdAt,value
2018-02-11T00:01:12.223Z,93861.42
2018-02-11T00:03:40.390Z,93858.69
2018-02-11T00:06:08.339Z,93856.14
2018-02-11T00:08:36.343Z,93855.52
2018-02-11T00:11:04.246Z,93859.67
2018-02-11T00:13:32.150Z,93853.80
2018-02-11T00:16:00.147Z,93850.08
2018-02-11T00:18:28.150Z,93844.38
2018-02-11T00:20:56.102Z,93851.63
2018-02-11T00:23:24.074Z,93837.38
2018-02-11T00:25:52.018Z,93844.75
2018-02-11T00:28:19.942Z,93840.30
2018-02-11T00:30:48.094Z,93839.48
2018-02-11T00:33:16.066Z,93838.75
2018-02-11T00:35:44.018Z,93836.92
2018-02-11T00:38:11.951Z,93829.73
2018-02-11T00:40:39.949Z,93837.95
2018-02-11T00:43:07.902Z,93849.00
2018-02-11T00:45:35.814Z,93843.44
2018-02-11T00:48:03.810Z,93849.16
2018-02-11T00:50:31.739Z,93845.02
2018-02-11T00:52:59.643Z,93844.13
2018-02-11T00:55:27.635Z,93846.28
2018-02-11T00:57:55.632Z,93843.35
2018-02-11T01:00:23.581Z,93848.38
2018-02-11T01:02:51.549Z,93842.98
2018-02-11T01:05:19.507Z,93837.45
2018-02-11T01:07:47.450Z,93843.98
2018-02-11T01:10:15.451Z,93842.64
2018-02-11T01:12:43.372Z,93833.23
2018-02-11T01:15:11.367Z,93843.39
2018-02-11T01:17:39.295Z,93839.85
2018-02-11T01:20:07.649Z,93837.73
2018-02-11T01:22:35.608Z,93836.24
2018-02-11T01:25:03.555Z,93838.17
2018-02-11T01:27:31.518Z,93834.11
2018-02-11T01:29:59.490Z,93835.67
2018-02-11T01:32:27.738Z,93832.70
2018-02-11T01:34:55.694Z,93831.95
2018-02-11T01:37:23.605Z,93829.72
2018-02-11T01:39:51.644Z,93832.63
2018-02-11T01:42:19.542Z,93844.02
2018-02-11T01:44:47.503Z,93837.21
2018-02-11T01:47:15.512Z,93836.38
2018-02-11T01:49:43.484Z,93828.25
2018-02-11T01:52:11.479Z,93829.36
2018-02-11T01:54:39.456Z,93827.44
2018-02-11T01:57:07.378Z,93831.09
2018-02-11T01:59:35.383Z,93824.92
2018-02-11T02:02:03.393Z,93820.73
2018-02-11T02:04:31.314Z,93821.56
2018-02-11T02:06:59.250Z,93818.27
2018-02-11T02:09:27.325Z,93811.27
2018-02-11T02:11:55.169Z,93817.88
2018-02-11T02:14:23.006Z,93817.29
2018-02-11T02:16:50.928Z,93821.01
2018-02-11T02:19:18.892Z,93822.90
2018-02-11T02:21:46.924Z,93819.33
2018-02-11T02:24:14.906Z,93816.06
2018-02-11T02:26:42.855Z,93817.86
2018-02-11T02:29:10.830Z,93825.45
2018-02-11T02:31:38.832Z,93826.77
2018-02-11T02:34:07.230Z,93822.64
2018-02-11T02:36:35.238Z,93825.88
2018-02-11T02:39:03.892Z,93819.39
2018-02-11T02:41:31.916Z,93815.44
2018-02-11T02:43:59.955Z,93822.06
2018-02-11T02:46:27.842Z,93817.03
2018-02-11T02:48:55.850Z,93823.93
2018-02-11T02:51:23.751Z,93824.30
2018-02-11T02:53:51.710Z,93824.80
2018-02-11T02:56:19.718Z,93812.96
2018-02-11T02:58:47.706Z,93813.11
2018-02-11T03:01:15.702Z,93815.92
2018-02-11T03:03:43.675Z,93823.33
2018-02-11T03:06:11.595Z,93820.44
2018-02-11T03:08:39.794Z,93836.84
2018-02-11T03:11:07.762Z,93825.56
2018-02-11T03:13:35.691Z,93820.59
2018-02-11T03:16:03.671Z,93814.69
2018-02-11T03:18:31.618Z,93823.48
2018-02-11T03:20:59.541Z,93816.45
2018-02-11T03:23:27.525Z,93827.21
2018-02-11T03:25:55.496Z,93821.33
2018-02-11T03:28:23.466Z,93829.54
2018-02-11T03:30:51.421Z,93834.98
2018-02-11T03:33:19.361Z,93842.80
2018-02-11T03:35:47.575Z,93845.83
2018-02-11T03:38:15.569Z,93841.53
2018-02-11T03:40:43.563Z,93842.70
2018-02-11T03:43:11.582Z,93846.79
2018-02-11T03:45:39.558Z,93851.83
2018-02-11T03:48:07.462Z,93855.84
2018-02-11T03:50:35.466Z,93843.06
2018-02-11T03:53:03.434Z,93853.80
2018-02-11T03:55:31.403Z,93853.74
2018-02-11T03:57:59.353Z,93862.98
2018-02-11T04:00:27.334Z,93866.27
2018-02-11T04:02:55.287Z,93841.37
2018-02-11T04:05:23.234Z,93857.02
2018-02-11T04:07:51.151Z,93854.41
2018-02-11T04:10:19.119Z,93865.87
2018-02-11T04:12:47.509Z,93857.91
2018-02-11T04:15:15.426Z,93861.16
2018-02-11T04:17:43.418Z,93861.62
2018-02-11T04:20:11.310Z,93864.09
2018-02-11T04:22:39.258Z,93867.81
2018-02-11T04:25:07.247Z,93860.96
2018-02-11T04:27:35.330Z,93856.09
2018-02-11T04:30:03.414Z,93857.64
2018-02-11T04:32:31.366Z,93856.35
2018-02-11T04:34:59.339Z,93860.36
2018-02-11T04:37:27.632Z,93858.17
2018-02-11T04:39:55.510Z,93859.39
2018-02-11T04:42:23.486Z,93856.52
2018-02-11T04:44:51.421Z,93857.63
2018-02-11T04:47:20.625Z,93862.94
2018-02-11T04:49:48.565Z,93859.17
2018-02-11T04:52:16.510Z,93857.59
2018-02-11T04:54:44.518Z,93853.56
2018-02-11T04:57:12.463Z,93856.52
2018-02-11T04:59:40.386Z,93855.31
2018-02-11T05:02:08.362Z,93857.69
2018-02-11T05:04:36.274Z,93858.95
2018-02-11T05:07:04.282Z,93864.88
2018-02-11T05:09:32.242Z,93872.19
2018-02-11T05:12:00.226Z,93866.63
2018-02-11T05:14:28.237Z,93862.88
2018-02-11T05:16:56.243Z,93871.25
2018-02-11T05:19:24.126Z,93867.20
2018-02-11T05:21:52.078Z,93866.93
2018-02-11T05:24:20.026Z,93867.39
2018-02-11T05:26:47.999Z,93858.80
2018-02-11T05:29:15.922Z,93875.63
2018-02-11T05:31:43.866Z,93872.86
2018-02-11T05:34:11.806Z,93883.55
2018-02-11T05:36:39.798Z,93890.61
2018-02-11T05:39:08.083Z,93888.82
2018-02-11T05:41:36.056Z,93881.83
2018-02-11T05:44:04.287Z,93885.37
2018-02-11T05:46:32.306Z,93897.86
2018-02-11T05:49:00.333Z,93888.22
2018-02-11T05:51:28.322Z,93895.85
2018-02-11T05:53:56.305Z,93909.89
2018-02-11T05:56:24.274Z,93904.34
2018-02-11T05:58:52.303Z,93916.22
2018-02-11T06:01:20.220Z,93914.55
2018-02-11T06:03:48.146Z,93913.60
2018-02-11T06:06:16.101Z,93909.83
2018-02-11T06:08:44.093Z,93915.12
2018-02-11T06:11:12.102Z,93914.14
2018-02-11T06:13:40.102Z,93915.61
2018-02-11T06:16:08.164Z,93911.39
2018-02-11T06:18:36.458Z,93913.84
2018-02-11T06:21:04.643Z,93921.13
2018-02-11T06:23:33.238Z,93920.78
2018-02-11T06:26:01.778Z,93914.50
2018-02-11T06:28:30.170Z,93909.95
2018-02-11T06:30:58.758Z,93918.63
2018-02-11T06:33:27.015Z,93914.11
2018-02-11T06:35:55.415Z,93910.61
2018-02-11T06:38:23.993Z,93917.05
2018-02-11T06:40:52.375Z,93910.51
2018-02-11T06:43:20.855Z,93902.08
2018-02-11T06:45:49.052Z,93910.18
2018-02-11T06:48:17.508Z,93908.42
2018-02-11T06:50:45.986Z,93907.02
2018-02-11T06:53:14.166Z,93906.56
2018-02-11T06:55:42.434Z,93905.42
2018-02-11T06:58:10.935Z,93906.16
2018-02-11T07:00:39.482Z,93906.97
2018-02-11T07:03:07.785Z,93904.66
2018-02-11T07:05:36.368Z,93901.32
2018-02-11T07:08:04.634Z,93901.95
2018-02-11T07:10:32.920Z,93906.67
2018-02-11T07:13:01.494Z,93911.13
2018-02-11T07:15:29.973Z,93907.60
2018-02-11T07:17:58.251Z,93908.20
2018-02-11T07:20:26.625Z,93911.39
2018-02-11T07:22:54.919Z,93907.66
2018-02-11T07:25:22.847Z,93914.02
2018-02-11T07:27:50.782Z,93915.22
2018-02-11T07:30:18.698Z,93913.44
2018-02-11T07:32:46.662Z,93918.08
2018-02-11T07:35:14.725Z,93924.09
2018-02-11T07:37:43.498Z,93925.13
2018-02-11T07:40:11.462Z,93932.46
2018-02-11T07:42:39.589Z,93936.08
2018-02-11T07:45:07.542Z,93932.63
2018-02-11T07:47:35.498Z,93941.31
2018-02-11T07:50:03.489Z,93936.13
2018-02-11T07:52:31.514Z,93942.36
2018-02-11T07:54:59.474Z,93936.06
2018-02-11T07:57:27.480Z,93947.20
2018-02-11T07:59:55.497Z,93952.06
2018-02-11T08:02:23.438Z,93953.52
2018-02-11T08:04:51.390Z,93957.86
2018-02-11T08:07:19.374Z,93958.56
2018-02-11T08:09:47.390Z,93960.93
2018-02-11T08:12:15.323Z,93961.83
2018-02-11T08:14:43.267Z,93963.23
2018-02-11T08:17:11.386Z,93967.11
2018-02-11T08:19:39.388Z,93973.39
2018-02-11T08:22:07.382Z,93977.30
2018-02-11T08:24:35.439Z,93984.02
2018-02-11T08:27:03.443Z,93994.03
2018-02-11T08:29:31.418Z,93983.77
2018-02-11T08:31:59.378Z,93990.27
2018-02-11T08:34:27.361Z,94001.81
2018-02-11T08:36:55.324Z,94000.67
2018-02-11T08:39:23.422Z,93994.27
2018-02-11T08:41:51.438Z,94007.80
2018-02-11T08:44:19.870Z,94008.88
2018-02-11T08:46:48.402Z,94015.42
2018-02-11T08:49:16.386Z,94024.59
2018-02-11T08:51:44.364Z,94026.66
2018-02-11T08:54:12.412Z,94025.92
2018-02-11T08:56:40.370Z,94034.80
2018-02-11T08:59:08.437Z,94035.41
2018-02-11T09:01:36.450Z,94039.61
2018-02-11T09:04:04.565Z,94041.86
2018-02-11T09:06:32.524Z,94046.27
2018-02-11T09:09:00.860Z,94046.14
2018-02-11T09:11:29.406Z,94048.89
2018-02-11T09:13:57.390Z,94051.17
2018-02-11T09:16:25.347Z,94056.23
2018-02-11T09:18:53.268Z,94055.66
2018-02-11T09:21:21.282Z,94057.19
2018-02-11T09:23:49.271Z,94061.86
2018-02-11T09:26:17.402Z,94066.52
2018-02-11T09:28:45.367Z,94066.02
2018-02-11T09:31:13.351Z,94065.62
2018-02-11T09:33:41.349Z,94058.64
2018-02-11T09:36:09.421Z,94073.54
2018-02-11T09:38:37.353Z,94061.05
2018-02-11T09:41:05.401Z,94057.67
2018-02-11T09:43:33.382Z,94062.42
2018-02-11T09:46:01.695Z,94072.78
2018-02-11T09:48:29.654Z,94067.34
2018-02-11T09:50:57.578Z,94069.02
2018-02-11T09:53:25.535Z,94066.07
2018-02-11T09:55:53.510Z,94068.03
2018-02-11T09:58:21.498Z,94072.13
2018-02-11T10:00:49.559Z,94069.44
2018-02-11T10:03:17.748Z,94068.85
2018-02-11T10:05:46.131Z,94060.98
2018-02-11T10:08:14.726Z,94064.34
2018-02-11T10:10:43.109Z,94061.66
2018-02-11T10:13:11.464Z,94064.68
2018-02-11T10:15:39.962Z,94063.48
2018-02-11T10:18:08.554Z,94062.14
2018-02-11T10:20:36.543Z,94065.38
2018-02-11T10:23:04.855Z,94057.00
2018-02-11T10:25:33.062Z,94055.29
2018-02-11T10:28:01.546Z,94055.16
2018-02-11T10:30:29.822Z,94050.84
2018-02-11T10:32:58.104Z,94053.84
2018-02-11T10:35:26.067Z,94045.50
2018-02-11T10:37:54.107Z,94049.66
2018-02-11T10:40:22.132Z,94049.10
2018-02-11T10:42:50.117Z,94048.11
2018-02-11T10:45:18.146Z,94050.70
2018-02-11T10:47:46.870Z,94049.70
2018-02-11T10:50:15.514Z,94057.16
2018-02-11T10:52:43.782Z,94048.48
2018-02-11T10:55:12.165Z,94049.11
2018-02-11T10:57:40.629Z,94057.78
2018-02-11T11:00:08.821Z,94048.02
2018-02-11T11:02:37.098Z,94045.11
2018-02-11T11:05:05.690Z,94045.30
2018-02-11T11:07:34.297Z,94037.75
2018-02-11T11:10:03.255Z,94029.95
2018-02-11T11:12:31.791Z,94041.76
2018-02-11T11:14:59.778Z,94036.02
2018-02-11T11:17:27.729Z,94027.98
2018-02-11T11:19:55.862Z,94028.94
2018-02-11T11:22:23.912Z,94030.16
2018-02-11T11:24:51.878Z,94024.63
2018-02-11T11:27:19.935Z,94022.30
2018-02-11T11:29:47.906Z,94019.42
2018-02-11T11:32:15.837Z,94024.05
2018-02-11T11:34:43.883Z,94021.33
2018-02-11T11:37:11.929Z,94013.81
2018-02-11T11:39:39.913Z,94011.38
2018-02-11T11:42:07.890Z,94010.59
2018-02-11T11:44:35.819Z,94005.89
2018-02-11T11:47:03.863Z,94001.84
2018-02-11T11:49:32.797Z,94004.03
2018-02-11T11:52:00.747Z,94002.91
2018-02-11T11:54:28.704Z,93995.46
2018-02-11T11:56:56.712Z,93996.63
2018-02-11T11:59:24.726Z,94000.80
2018-02-11T12:01:52.758Z,93992.04
2018-02-11T12:04:20.717Z,93992.43
2018-02-11T12:06:48.689Z,93996.91
2018-02-11T12:09:16.633Z,93982.34
2018-02-11T12:11:44.630Z,93991.27
2018-02-11T12:14:12.602Z,93993.48
2018-02-11T12:16:40.587Z,93940.39
2018-02-11T12:19:08.497Z,93998.38
2018-02-11T12:21:36.454Z,93919.92
2018-02-11T12:24:04.466Z,93993.96
2018-02-11T12:26:32.419Z,94001.70
2018-02-11T12:29:00.394Z,93999.04
2018-02-11T12:31:28.427Z,93996.78
2018-02-11T12:33:56.411Z,93997.84
2018-02-11T12:36:24.419Z,93996.73
2018-02-11T12:38:52.443Z,94002.64
2018-02-11T12:41:20.397Z,94000.30
2018-02-11T12:43:48.321Z,94006.95
2018-02-11T12:46:16.349Z,93995.48
2018-02-11T12:48:44.470Z,94009.52
2018-02-11T12:51:13.690Z,94002.28
2018-02-11T12:53:41.687Z,94009.48
2018-02-11T12:56:09.694Z,94005.58
2018-02-11T12:58:37.717Z,94011.94
2018-02-11T13:01:05.682Z,94009.72
2018-02-11T13:03:33.650Z,93960.95
2018-02-11T13:06:01.632Z,94015.85
2018-02-11T13:08:29.562Z,94014.01
2018-02-11T13:10:57.479Z,94014.72
2018-02-11T13:13:25.455Z,94028.70
2018-02-11T13:15:53.459Z,94020.36
2018-02-11T13:18:21.447Z,94024.22
2018-02-11T13:20:49.410Z,94026.86
2018-02-11T13:23:17.327Z,94028.65
2018-02-11T13:25:45.470Z,94025.52
2018-02-11T13:28:13.399Z,94031.63
2018-02-11T13:30:41.392Z,94032.09
2018-02-11T13:33:09.428Z,94035.00
2018-02-11T13:35:37.430Z,94039.64
2018-02-11T13:38:05.444Z,94040.16
2018-02-11T13:40:33.415Z,94041.36
2018-02-11T13:43:01.424Z,94040.79
2018-02-11T13:45:29.392Z,94044.73
2018-02-11T13:47:57.354Z,94038.59
2018-02-11T13:50:25.391Z,94046.70
2018-02-11T13:52:53.904Z,94052.33
2018-02-11T13:55:22.036Z,94046.86
2018-02-11T13:57:50.035Z,94056.09
2018-02-11T14:00:17.998Z,94053.42
2018-02-11T14:02:46.015Z,94061.09
2018-02-11T14:05:13.963Z,94065.50
2018-02-11T14:07:42.025Z,94072.06
2018-02-11T14:10:09.986Z,94062.14
2018-02-11T14:12:38.027Z,94066.56
2018-02-11T14:15:06.599Z,94074.01
2018-02-11T14:17:34.690Z,94074.77
2018-02-11T14:20:02.699Z,94080.45
2018-02-11T14:22:30.655Z,94088.87
2018-02-11T14:24:58.578Z,94088.20
2018-02-11T14:27:26.707Z,94091.25
2018-02-11T14:29:54.763Z,94092.50
2018-02-11T14:32:22.747Z,94099.98
2018-02-11T14:34:50.722Z,94099.86
2018-02-11T14:37:18.776Z,94103.47
2018-02-11T14:39:46.827Z,94101.84
2018-02-11T14:42:14.860Z,94109.86
2018-02-11T14:44:42.842Z,94112.59
2018-02-11T14:47:10.868Z,94107.35
2018-02-11T14:49:38.794Z,94115.64
2018-02-11T14:52:06.807Z,94115.79
2018-02-11T14:54:35.044Z,94121.55
2018-02-11T14:57:03.037Z,94124.15
2018-02-11T14:59:31.062Z,94128.78
2018-02-11T15:01:59.086Z,94130.67
2018-02-11T15:04:27.083Z,94135.13
2018-02-11T15:06:55.054Z,94137.88
2018-02-11T15:09:23.052Z,94143.55
2018-02-11T15:11:51.049Z,94143.62
2018-02-11T15:14:19.046Z,94148.27
2018-02-11T15:16:47.078Z,94157.38
2018-02-11T15:19:15.049Z,94159.44
2018-02-11T15:21:43.022Z,94168.80
2018-02-11T15:24:11.039Z,94167.31
2018-02-11T15:26:39.058Z,94172.48
2018-02-11T15:29:07.040Z,94172.45
2018-02-11T15:31:34.999Z,94173.39
2018-02-11T15:34:03.092Z,94184.30
2018-02-11T15:36:31.086Z,94180.36
2018-02-11T15:38:59.050Z,94187.69
2018-02-11T15:41:27.036Z,94188.79
2018-02-11T15:43:55.041Z,94193.27
2018-02-11T15:46:22.975Z,94193.81
2018-02-11T15:48:50.899Z,94192.53
2018-02-11T15:51:18.870Z,94202.72
2018-02-11T15:53:46.834Z,94200.08
2018-02-11T15:56:15.173Z,94201.13
2018-02-11T15:58:43.247Z,94213.45
2018-02-11T16:01:11.202Z,94211.32
2018-02-11T16:03:39.163Z,94218.19
2018-02-11T16:06:07.126Z,94216.37
2018-02-11T16:08:35.155Z,94225.16
2018-02-11T16:11:03.172Z,94229.09
2018-02-11T16:13:31.111Z,94226.51
2018-02-11T16:15:59.254Z,94237.75
2018-02-11T16:18:27.242Z,94237.88
2018-02-11T16:20:55.240Z,94240.55
2018-02-11T16:23:23.244Z,94218.78
2018-02-11T16:25:51.250Z,94247.26
2018-02-11T16:28:19.178Z,94251.55
2018-02-11T16:30:47.316Z,94254.81
2018-02-11T16:33:15.252Z,94258.62
2018-02-11T16:35:43.334Z,94257.33
2018-02-11T16:38:11.265Z,94262.06
2018-02-11T16:40:39.206Z,94264.44
2018-02-11T16:43:07.190Z,94268.20
2018-02-11T16:45:37.387Z,94264.90
2018-02-11T16:48:05.433Z,94274.55
2018-02-11T16:50:33.439Z,94276.23
2018-02-11T16:53:01.426Z,94287.26
2018-02-11T16:55:29.472Z,94289.94
2018-02-11T16:57:57.766Z,94295.83
2018-02-11T17:00:25.734Z,94281.09
2018-02-11T17:02:53.747Z,94299.41
2018-02-11T17:05:21.778Z,94288.83
2018-02-11T17:07:49.842Z,94295.95
2018-02-11T17:10:17.866Z,94297.44
2018-02-11T17:12:45.846Z,94307.22
2018-02-11T17:15:13.866Z,94306.79
2018-02-11T17:17:41.796Z,94305.08
2018-02-11T17:20:09.869Z,94308.59
2018-02-11T17:22:37.856Z,94306.99
2018-02-11T17:25:05.879Z,94312.95
2018-02-11T17:27:33.782Z,94310.71
2018-02-11T17:30:01.766Z,94316.81
2018-02-11T17:32:29.747Z,94333.34
2018-02-11T17:34:57.706Z,94325.98
2018-02-11T17:37:25.690Z,94329.78
2018-02-11T17:39:53.771Z,94330.70
2018-02-11T17:42:21.802Z,94336.75
2018-02-11T17:44:50.021Z,94336.67
2018-02-11T17:47:17.857Z,94343.22
2018-02-11T17:49:45.882Z,94343.60
2018-02-11T17:52:13.850Z,94342.35
2018-02-11T17:54:41.855Z,94348.77
2018-02-11T17:57:09.900Z,94347.74
2018-02-11T17:59:38.331Z,94350.47
2018-02-11T18:02:06.333Z,94354.48
2018-02-11T18:04:34.373Z,94350.86
2018-02-11T18:07:02.315Z,94357.62
2018-02-11T18:09:30.277Z,94349.46
2018-02-11T18:11:58.310Z,94364.12
2018-02-11T18:14:26.291Z,94369.22
2018-02-11T18:16:55.087Z,94378.43
2018-02-11T18:19:23.050Z,94375.33
2018-02-11T18:21:51.027Z,94384.84
2018-02-11T18:24:18.991Z,94386.93
2018-02-11T18:26:47.068Z,94388.52
2018-02-11T18:29:15.144Z,94379.63
2018-02-11T18:31:43.244Z,94396.69
2018-02-11T18:34:12.506Z,94396.81
2018-02-11T18:36:40.537Z,94398.11
2018-02-11T18:39:08.539Z,94395.64
2018-02-11T18:41:36.520Z,94400.37
2018-02-11T18:44:04.507Z,94405.70
2018-02-11T18:46:32.490Z,94404.95
2018-02-11T18:49:00.451Z,94403.73
2018-02-11T18:51:28.503Z,94411.95
2018-02-11T18:53:56.841Z,94416.84
2018-02-11T18:56:24.830Z,94419.94
2018-02-11T18:58:52.881Z,94423.73
2018-02-11T19:01:21.284Z,94422.22
2018-02-11T19:03:49.295Z,94427.11
2018-02-11T19:06:17.310Z,94429.78
2018-02-11T19:08:45.282Z,94427.48
2018-02-11T19:11:13.310Z,94427.32
2018-02-11T19:13:41.371Z,94431.87
2018-02-11T19:16:09.350Z,94429.33
2018-02-11T19:18:37.323Z,94429.05
2018-02-11T19:21:05.283Z,94436.46
2018-02-11T19:23:33.358Z,94438.84
2018-02-11T19:26:01.340Z,94439.83
2018-02-11T19:28:29.308Z,94445.87
2018-02-11T19:30:57.315Z,94446.63
2018-02-11T19:33:25.346Z,94453.03
2018-02-11T19:35:53.370Z,94451.58
2018-02-11T19:38:21.260Z,94454.63
2018-02-11T19:40:49.345Z,94459.47
2018-02-11T19:43:17.354Z,94456.80
2018-02-11T19:45:45.321Z,94452.54
2018-02-11T19:48:13.301Z,94450.32
2018-02-11T19:50:41.266Z,94460.25
2018-02-11T19:53:09.183Z,94462.76
2018-02-11T19:55:37.138Z,94466.47
2018-02-11T19:58:05.135Z,94466.61
2018-02-11T20:00:33.160Z,94470.05
2018-02-11T20:03:01.639Z,94469.74
2018-02-11T20:05:29.580Z,94476.64
2018-02-11T20:07:57.571Z,94478.25
2018-02-11T20:10:25.570Z,94480.38
2018-02-11T20:12:53.551Z,94485.53
2018-02-11T20:15:21.441Z,94487.75
2018-02-11T20:17:49.394Z,94490.34
2018-02-11T20:20:17.463Z,94495.16
2018-02-11T20:22:46.462Z,94493.98
2018-02-11T20:25:14.406Z,94497.77
2018-02-11T20:27:42.429Z,94500.72
2018-02-11T20:30:10.389Z,94498.64
2018-02-11T20:32:38.395Z,94500.16
2018-02-11T20:35:06.362Z,94502.43
2018-02-11T20:37:34.483Z,94507.00
2018-02-11T20:40:02.442Z,94509.08
2018-02-11T20:42:30.440Z,94507.74
2018-02-11T20:44:58.404Z,94505.47
2018-02-11T20:47:26.382Z,94508.70
2018-02-11T20:49:54.312Z,94507.50
2018-02-11T20:52:22.270Z,94514.33
2018-02-11T20:54:50.246Z,94512.25
2018-02-11T20:57:18.191Z,94510.61
2018-02-11T20:59:46.225Z,94508.95
2018-02-11T21:02:14.233Z,94516.06
2018-02-11T21:04:42.495Z,94517.53
2018-02-11T21:07:10.492Z,94521.31
2018-02-11T21:09:38.500Z,94523.29
2018-02-11T21:12:06.537Z,94525.42
2018-02-11T21:14:34.786Z,94524.59
2018-02-11T21:17:02.742Z,94534.41
2018-02-11T21:19:30.730Z,94531.34
2018-02-11T21:21:58.866Z,94529.22
2018-02-11T21:24:26.811Z,94527.09
2018-02-11T21:26:54.798Z,94529.89
2018-02-11T21:29:22.853Z,94537.92
2018-02-11T21:31:51.773Z,94534.37
2018-02-11T21:34:19.711Z,94539.75
2018-02-11T21:36:47.777Z,94536.95
2018-02-11T21:39:15.689Z,94538.80
2018-02-11T21:41:43.772Z,94542.55
2018-02-11T21:44:11.751Z,94543.86
2018-02-11T21:46:39.751Z,94549.76
2018-02-11T21:49:07.711Z,94542.94
2018-02-11T21:51:35.695Z,94546.22
2018-02-11T21:54:03.765Z,94547.53
2018-02-11T21:56:31.711Z,94548.33
2018-02-11T21:58:59.709Z,94547.62
2018-02-11T22:01:27.661Z,94552.52
2018-02-11T22:03:55.561Z,94557.00
2018-02-11T22:06:24.180Z,94554.09
2018-02-11T22:08:52.543Z,94551.66
2018-02-11T22:11:21.013Z,94559.98
2018-02-11T22:13:49.297Z,94564.37
2018-02-11T22:16:17.769Z,94564.16
2018-02-11T22:18:46.232Z,94563.72
2018-02-11T22:21:14.525Z,94567.73
2018-02-11T22:23:42.940Z,94559.37
2018-02-11T22:26:11.265Z,94562.41
2018-02-11T22:28:39.762Z,94566.32
2018-02-11T22:31:08.210Z,94564.66
2018-02-11T22:33:36.722Z,94557.63
2018-02-11T22:36:05.102Z,94554.38
2018-02-11T22:38:33.486Z,94563.33
2018-02-11T22:41:02.165Z,94556.22
2018-02-11T22:43:30.745Z,94559.50
2018-02-11T22:45:58.930Z,94564.22
2018-02-11T22:48:27.402Z,94564.69
2018-02-11T22:50:55.761Z,94564.25
2018-02-11T22:53:24.357Z,94566.14
2018-02-11T22:55:52.354Z,94556.02
2018-02-11T22:58:20.706Z,94565.24
2018-02-11T23:00:48.987Z,94568.69
2018-02-11T23:03:17.366Z,94558.68
2018-02-11T23:05:45.744Z,94561.28
2018-02-11T23:08:14.530Z,94558.78
2018-02-11T23:10:42.901Z,94557.75
2018-02-11T23:13:11.183Z,94563.62
2018-02-11T23:15:39.484Z,94560.33
2018-02-11T23:18:07.938Z,94566.67
2018-02-11T23:20:36.024Z,94567.59
2018-02-11T23:23:04.026Z,94568.44
2018-02-11T23:25:31.970Z,94572.40
2018-02-11T23:28:00.110Z,94566.23
2018-02-11T23:30:28.606Z,94568.58
2018-02-11T23:32:57.151Z,94571.48
2018-02-11T23:35:25.557Z,94578.65
2018-02-11T23:37:53.939Z,94579.05
2018-02-11T23:40:22.270Z,94584.57
2018-02-11T23:42:50.801Z,94579.31
2018-02-11T23:45:19.292Z,94582.23
2018-02-11T23:47:47.262Z,94582.55
2018-02-11T23:50:15.825Z,94580.45
2018-02-11T23:52:44.105Z,94588.22
2018-02-11T23:55:12.478Z,94597.09
2018-02-11T23:57:40.783Z,94598.43
